createdAt,value
2015-04-06T00:00:17.328Z,96229
2015-04-06T00:00:35.734Z,96221
2015-04-06T00:00:54.253Z,96219
2015-04-06T00:01:12.706Z,96221
2015-04-06T00:01:31.268Z,96216
2015-04-06T00:01:49.690Z,96221
2015-04-06T00:02:08.114Z,96221
2015-04-06T00:02:26.505Z,96217
2015-04-06T00:02:45.020Z,96217
2015-04-06T00:03:03.492Z,96217
2015-04-06T00:03:22.445Z,96219
2015-04-06T00:03:41.117Z,96219
2015-04-06T00:03:59.697Z,96219
2015-04-06T00:04:18.119Z,96211
2015-04-06T00:04:36.510Z,96217
2015-04-06T00:04:55.103Z,96219
2015-04-06T00:05:13.840Z,96217
2015-04-06T00:05:32.215Z,96219
2015-04-06T00:05:50.637Z,96219
2015-04-06T00:06:09.405Z,96227
2015-04-06T00:06:27.796Z,96214
2015-04-06T00:06:46.343Z,96214
2015-04-06T00:07:05.157Z,96227
2015-04-06T00:07:23.845Z,96217
2015-04-06T00:07:42.251Z,96222
2015-04-06T00:08:00.737Z,96219
2015-04-06T00:08:19.675Z,96219
2015-04-06T00:08:38.050Z,96217
2015-04-06T00:08:56.831Z,96230
2015-04-06T00:09:15.302Z,96222
2015-04-06T00:09:34.083Z,96231
2015-04-06T00:09:53.067Z,96228
2015-04-06T00:10:11.867Z,96228
2015-04-06T00:10:30.258Z,96219
2015-04-06T00:10:49.055Z,96217
2015-04-06T00:11:07.791Z,96217
2015-04-06T00:11:26.338Z,96218
2015-04-06T00:11:44.979Z,96215
2015-04-06T00:12:03.479Z,96222
2015-04-06T00:12:21.887Z,96215
2015-04-06T00:12:40.574Z,96222
2015-04-06T00:12:59.434Z,96222
2015-04-06T00:13:17.952Z,96218
2015-04-06T00:13:36.640Z,96204
2015-04-06T00:13:55.046Z,96218
2015-04-06T00:14:13.829Z,96220
2015-04-06T00:14:32.470Z,96210
2015-04-06T00:14:51.236Z,96207
2015-04-06T00:15:09.829Z,96216
2015-04-06T00:15:28.426Z,96218
2015-04-06T00:15:47.161Z,96220
2015-04-06T00:16:05.973Z,96220
2015-04-06T00:16:24.616Z,96213
2015-04-06T00:16:43.350Z,96219
2015-04-06T00:17:02.038Z,96208
2015-04-06T00:17:20.759Z,96213
2015-04-06T00:17:39.369Z,96213
2015-04-06T00:17:58.103Z,96216
2015-04-06T00:18:16.558Z,96219
2015-04-06T00:18:35.089Z,96219
2015-04-06T00:18:53.652Z,96216
2015-04-06T00:19:12.511Z,96217
2015-04-06T00:19:31.123Z,96217
2015-04-06T00:19:49.732Z,96219
2015-04-06T00:20:08.310Z,96206
2015-04-06T00:20:26.703Z,96219
2015-04-06T00:20:45.140Z,96214
2015-04-06T00:21:03.547Z,96219
2015-04-06T00:21:22.267Z,96219
2015-04-06T00:21:40.783Z,96212
2015-04-06T00:21:59.408Z,96219
2015-04-06T00:22:17.908Z,96209
2015-04-06T00:22:36.645Z,96209
2015-04-06T00:22:55.145Z,96219
2015-04-06T00:23:13.927Z,96218
2015-04-06T00:23:32.382Z,96219
2015-04-06T00:23:50.835Z,96222
2015-04-06T00:24:09.272Z,96218
2015-04-06T00:24:27.882Z,96222
2015-04-06T00:24:46.478Z,96218
2015-04-06T00:25:04.978Z,96220
2015-04-06T00:25:23.603Z,96218
2015-04-06T00:25:42.231Z,96213
2015-04-06T00:26:01.185Z,96223
2015-04-06T00:26:19.841Z,96213
2015-04-06T00:26:38.437Z,96220
2015-04-06T00:26:57.296Z,96220
2015-04-06T00:27:15.827Z,96220
2015-04-06T00:27:34.437Z,96234
2015-04-06T00:27:52.970Z,96229
2015-04-06T00:28:11.485Z,96219
2015-04-06T00:28:30.345Z,96229
2015-04-06T00:28:49.442Z,96223
2015-04-06T00:29:08.410Z,96216
2015-04-06T00:29:26.910Z,96219
2015-04-06T00:29:45.600Z,96213
2015-04-06T00:30:04.475Z,96227
2015-04-06T00:30:22.990Z,96216
2015-04-06T00:30:41.490Z,96221
2015-04-06T00:31:00.009Z,96219
2015-04-06T00:31:18.525Z,96221
2015-04-06T00:31:37.290Z,96219
2015-04-06T00:31:56.074Z,96219
2015-04-06T00:32:14.761Z,96203
2015-04-06T00:32:33.370Z,96221
2015-04-06T00:32:52.013Z,96214
2015-04-06T00:33:10.576Z,96227
2015-04-06T00:33:29.138Z,96230
2015-04-06T00:33:47.669Z,96217
2015-04-06T00:34:06.421Z,96214
2015-04-06T00:34:24.953Z,96211
2015-04-06T00:34:43.593Z,96219
2015-04-06T00:35:01.987Z,96219
2015-04-06T00:35:20.690Z,96227
2015-04-06T00:35:39.393Z,96211
2015-04-06T00:35:58.193Z,96217
2015-04-06T00:36:16.865Z,96222
2015-04-06T00:36:35.552Z,96217
2015-04-06T00:36:54.304Z,96217
2015-04-06T00:37:12.789Z,96230
2015-04-06T00:37:31.351Z,96219
2015-04-06T00:37:50.226Z,96212
2015-04-06T00:38:08.900Z,96214
2015-04-06T00:38:27.619Z,96212
2015-04-06T00:38:46.353Z,96217
2015-04-06T00:39:05.012Z,96228
2015-04-06T00:39:23.809Z,96215
2015-04-06T00:39:42.200Z,96219
2015-04-06T00:40:00.608Z,96215
2015-04-06T00:40:19.186Z,96209
2015-04-06T00:40:37.718Z,96209
2015-04-06T00:40:56.374Z,96219
2015-04-06T00:41:14.798Z,96212
2015-04-06T00:41:33.329Z,96215
2015-04-06T00:41:51.923Z,96220
2015-04-06T00:42:10.441Z,96220
2015-04-06T00:42:28.910Z,96212
2015-04-06T00:42:47.519Z,96207
2015-04-06T00:43:06.160Z,96215
2015-04-06T00:43:25.115Z,96210
2015-04-06T00:43:43.771Z,96202
2015-04-06T00:44:02.303Z,96213
2015-04-06T00:44:21.195Z,96218
2015-04-06T00:44:39.977Z,96207
2015-04-06T00:44:58.852Z,96204
2015-04-06T00:45:17.541Z,96218
2015-04-06T00:45:36.119Z,96210
2015-04-06T00:45:54.807Z,96213
2015-04-06T00:46:13.310Z,96219
2015-04-06T00:46:31.888Z,96219
2015-04-06T00:46:50.810Z,96219
2015-04-06T00:47:09.357Z,96210
2015-04-06T00:47:27.797Z,96208
2015-04-06T00:47:46.485Z,96213
2015-04-06T00:48:04.953Z,96219
2015-04-06T00:48:23.471Z,96216
2015-04-06T00:48:42.268Z,96219
2015-04-06T00:49:00.658Z,96213
2015-04-06T00:49:19.349Z,96219
2015-04-06T00:49:38.224Z,96208
2015-04-06T00:49:56.943Z,96216
2015-04-06T00:50:15.756Z,96213
2015-04-06T00:50:34.147Z,96216
2015-04-06T00:50:52.725Z,96219
2015-04-06T00:51:11.303Z,96214
2015-04-06T00:51:29.947Z,96221
2015-04-06T00:51:48.556Z,96216
2015-04-06T00:52:07.275Z,96219
2015-04-06T00:52:25.809Z,96219
2015-04-06T00:52:44.293Z,96214
2015-04-06T00:53:03.450Z,96214
2015-04-06T00:53:22.043Z,96221
2015-04-06T00:53:40.874Z,96211
2015-04-06T00:53:59.655Z,96219
2015-04-06T00:54:18.467Z,96206
2015-04-06T00:54:37.204Z,96217
2015-04-06T00:54:56.094Z,96214
2015-04-06T00:55:14.610Z,96219
2015-04-06T00:55:33.457Z,96208
2015-04-06T00:55:51.988Z,96206
2015-04-06T00:56:10.832Z,96206
2015-04-06T00:56:29.256Z,96206
2015-04-06T00:56:47.896Z,96209
2015-04-06T00:57:06.740Z,96195
2015-04-06T00:57:25.740Z,96203
2015-04-06T00:57:44.149Z,96212
2015-04-06T00:58:02.884Z,96203
2015-04-06T00:58:21.290Z,96206
2015-04-06T00:58:39.792Z,96206
2015-04-06T00:58:58.589Z,96212
2015-04-06T00:59:17.307Z,96212
2015-04-06T00:59:36.106Z,96209
2015-04-06T00:59:54.700Z,96201
2015-04-06T01:00:13.309Z,96206
2015-04-06T01:00:32.046Z,96209
2015-04-06T01:00:50.436Z,96206
2015-04-06T01:01:09.077Z,96209
2015-04-06T01:01:27.499Z,96207
2015-04-06T01:01:46.142Z,96215
2015-04-06T01:02:04.563Z,96209
2015-04-06T01:02:23.142Z,96212
2015-04-06T01:02:41.582Z,96207
2015-04-06T01:03:00.426Z,96212
2015-04-06T01:03:19.082Z,96218
2015-04-06T01:03:37.537Z,96210
2015-04-06T01:03:56.084Z,96213
2015-04-06T01:04:14.568Z,96218
2015-04-06T01:04:33.209Z,96212
2015-04-06T01:04:52.009Z,96220
2015-04-06T01:05:10.400Z,96218
2015-04-06T01:05:28.806Z,96223
2015-04-06T01:05:47.714Z,96210
2015-04-06T01:06:06.323Z,96215
2015-04-06T01:06:25.089Z,96215
2015-04-06T01:06:43.667Z,96213
2015-04-06T01:07:02.436Z,96218
2015-04-06T01:07:21.420Z,96220
2015-04-06T01:07:39.951Z,96204
2015-04-06T01:07:58.500Z,96216
2015-04-06T01:08:17.094Z,96216
2015-04-06T01:08:35.594Z,96216
2015-04-06T01:08:54.097Z,96213
2015-04-06T01:09:12.816Z,96213
2015-04-06T01:09:31.285Z,96210
2015-04-06T01:09:50.083Z,96205
2015-04-06T01:10:08.880Z,96210
2015-04-06T01:10:27.568Z,96205
2015-04-06T01:10:46.130Z,96205
2015-04-06T01:11:04.601Z,96216
2015-04-06T01:11:23.226Z,96213
2015-04-06T01:11:41.835Z,96210
2015-04-06T01:12:00.417Z,96207
2015-04-06T01:12:19.135Z,96213
2015-04-06T01:12:37.604Z,96205
2015-04-06T01:12:56.137Z,96205
2015-04-06T01:13:14.731Z,96208
2015-04-06T01:13:33.247Z,96199
2015-04-06T01:13:51.669Z,96208
2015-04-06T01:14:10.217Z,96197
2015-04-06T01:14:28.733Z,96202
2015-04-06T01:14:47.155Z,96197
2015-04-06T01:15:05.844Z,96208
2015-04-06T01:15:24.438Z,96205
2015-04-06T01:15:42.891Z,96203
2015-04-06T01:16:01.393Z,96211
2015-04-06T01:16:20.081Z,96211
2015-04-06T01:16:38.628Z,96206
2015-04-06T01:16:57.209Z,96203
2015-04-06T01:17:15.881Z,96211
2015-04-06T01:17:34.287Z,96208
2015-04-06T01:17:52.787Z,96203
2015-04-06T01:18:11.243Z,96211
2015-04-06T01:18:29.634Z,96211
2015-04-06T01:18:48.149Z,96214
2015-04-06T01:19:06.714Z,96200
2015-04-06T01:19:25.667Z,96206
2015-04-06T01:19:44.448Z,96209
2015-04-06T01:20:03.153Z,96209
2015-04-06T01:20:21.575Z,96206
2015-04-06T01:20:40.075Z,96206
2015-04-06T01:20:58.466Z,96203
2015-04-06T01:21:16.327Z,96209
2015-04-06T01:21:34.812Z,96201
2015-04-06T01:21:53.421Z,96203
2015-04-06T01:22:11.830Z,96209
2015-04-06T01:22:30.221Z,96206
2015-04-06T01:22:48.674Z,96218
2015-04-06T01:23:07.408Z,96207
2015-04-06T01:23:26.020Z,96209
2015-04-06T01:23:44.660Z,96206
2015-04-06T01:24:03.176Z,96212
2015-04-06T01:24:21.695Z,96206
2015-04-06T01:24:40.179Z,96204
2015-04-06T01:24:58.570Z,96206
2015-04-06T01:25:17.070Z,96218
2015-04-06T01:25:35.526Z,96209
2015-04-06T01:25:54.276Z,96204
2015-04-06T01:26:13.104Z,96210
2015-04-06T01:26:31.731Z,96207
2015-04-06T01:26:50.246Z,96210
2015-04-06T01:27:08.809Z,96204
2015-04-06T01:27:27.389Z,96207
2015-04-06T01:27:45.889Z,96207
2015-04-06T01:28:04.327Z,96213
2015-04-06T01:28:22.827Z,96207
2015-04-06T01:28:41.361Z,96196
2015-04-06T01:28:59.783Z,96202
2015-04-06T01:29:18.189Z,96196
2015-04-06T01:29:36.722Z,96207
2015-04-06T01:29:55.316Z,96207
2015-04-06T01:30:14.050Z,96199
2015-04-06T01:30:32.521Z,96199
2015-04-06T01:30:50.959Z,96199
2015-04-06T01:31:09.552Z,96199
2015-04-06T01:31:28.146Z,96202
2015-04-06T01:31:46.632Z,96207
2015-04-06T01:32:05.039Z,96210
2015-04-06T01:32:23.539Z,96196
2015-04-06T01:32:41.964Z,96196
2015-04-06T01:33:00.385Z,96191
2015-04-06T01:33:18.854Z,96196
2015-04-06T01:33:37.247Z,96208
2015-04-06T01:33:55.653Z,96194
2015-04-06T01:34:14.091Z,96194
2015-04-06T01:34:32.547Z,96185
2015-04-06T01:34:51.078Z,96202
2015-04-06T01:35:09.515Z,96197
2015-04-06T01:35:27.922Z,96205
2015-04-06T01:35:46.377Z,96194
2015-04-06T01:36:04.846Z,96185
2015-04-06T01:36:23.330Z,96197
2015-04-06T01:36:41.801Z,96194
2015-04-06T01:37:00.801Z,96197
2015-04-06T01:37:20.379Z,96191
2015-04-06T01:37:38.882Z,96200
2015-04-06T01:37:57.351Z,96186
2015-04-06T01:38:15.772Z,96183
2015-04-06T01:38:34.179Z,96191
2015-04-06T01:38:52.618Z,96194
2015-04-06T01:39:11.071Z,96194
2015-04-06T01:39:29.509Z,96191
2015-04-06T01:39:47.949Z,96186
2015-04-06T01:40:06.340Z,96188
2015-04-06T01:40:24.746Z,96188
2015-04-06T01:40:43.199Z,96191
2015-04-06T01:41:01.841Z,96186
2015-04-06T01:41:20.247Z,96189
2015-04-06T01:41:38.716Z,96186
2015-04-06T01:41:57.219Z,96189
2015-04-06T01:42:15.625Z,96186
2015-04-06T01:42:34.063Z,96186
2015-04-06T01:42:52.547Z,96186
2015-04-06T01:43:10.956Z,96186
2015-04-06T01:43:29.409Z,96186
2015-04-06T01:43:47.863Z,96186
2015-04-06T01:44:06.271Z,96186
2015-04-06T01:44:24.677Z,96180
2015-04-06T01:44:43.083Z,96189
2015-04-06T01:45:01.521Z,96178
2015-04-06T01:45:19.961Z,96186
2015-04-06T01:45:38.368Z,96183
2015-04-06T01:45:56.758Z,96172
2015-04-06T01:46:15.260Z,96183
2015-04-06T01:46:33.698Z,96186
2015-04-06T01:46:52.120Z,96183
2015-04-06T01:47:10.513Z,96181
2015-04-06T01:47:28.966Z,96189
2015-04-06T01:47:47.482Z,96183
2015-04-06T01:48:05.888Z,96189
2015-04-06T01:48:24.312Z,96194
2015-04-06T01:48:42.765Z,96172
2015-04-06T01:49:01.265Z,96189
2015-04-06T01:49:19.767Z,96192
2015-04-06T01:49:38.220Z,96192
2015-04-06T01:49:56.642Z,96192
2015-04-06T01:50:15.064Z,96192
2015-04-06T01:50:33.488Z,96183
2015-04-06T01:50:51.879Z,96175
2015-04-06T01:51:10.347Z,96194
2015-04-06T01:51:28.788Z,96186
2015-04-06T01:51:47.272Z,96178
2015-04-06T01:52:05.678Z,96183
2015-04-06T01:52:24.102Z,96178
2015-04-06T01:52:42.555Z,96183
2015-04-06T01:53:01.055Z,96175
2015-04-06T01:53:19.558Z,96195
2015-04-06T01:53:38.012Z,96181
2015-04-06T01:53:56.496Z,96178
2015-04-06T01:54:14.965Z,96178
2015-04-06T01:54:33.498Z,96183
2015-04-06T01:54:51.920Z,96178
2015-04-06T01:55:10.342Z,96183
2015-04-06T01:55:28.797Z,96181
2015-04-06T01:55:47.219Z,96169
2015-04-06T01:56:05.656Z,96178
2015-04-06T01:56:24.081Z,96181
2015-04-06T01:56:42.565Z,96172
2015-04-06T01:57:00.987Z,96178
2015-04-06T01:57:19.456Z,96181
2015-04-06T01:57:37.911Z,96183
2015-04-06T01:57:56.364Z,96175
2015-04-06T01:58:14.802Z,96181
2015-04-06T01:58:33.194Z,96181
2015-04-06T01:58:51.601Z,96181
2015-04-06T01:59:10.054Z,96173
2015-04-06T01:59:28.447Z,96181
2015-04-06T01:59:46.947Z,96184
2015-04-06T02:00:05.369Z,96181
2015-04-06T02:00:23.838Z,96173
2015-04-06T02:00:42.246Z,96178
2015-04-06T02:01:00.824Z,96173
2015-04-06T02:01:19.278Z,96192
2015-04-06T02:01:37.687Z,96181
2015-04-06T02:01:56.109Z,96184
2015-04-06T02:02:14.531Z,96179
2015-04-06T02:02:33.033Z,96181
2015-04-06T02:02:51.454Z,96179
2015-04-06T02:03:09.908Z,96184
2015-04-06T02:03:28.361Z,96184
2015-04-06T02:03:46.864Z,96181
2015-04-06T02:04:05.364Z,96184
2015-04-06T02:04:23.848Z,96190
2015-04-06T02:04:42.256Z,96187
2015-04-06T02:05:00.709Z,96184
2015-04-06T02:05:19.163Z,96184
2015-04-06T02:05:37.571Z,96187
2015-04-06T02:05:56.118Z,96187
2015-04-06T02:06:14.524Z,96193
2015-04-06T02:06:32.946Z,96182
2015-04-06T02:06:51.418Z,96193
2015-04-06T02:07:09.886Z,96190
2015-04-06T02:07:28.402Z,96185
2015-04-06T02:07:46.856Z,96193
2015-04-06T02:08:05.262Z,96182
2015-04-06T02:08:24.153Z,96185
2015-04-06T02:08:42.672Z,96187
2015-04-06T02:09:01.047Z,96182
2015-04-06T02:09:19.562Z,96190
2015-04-06T02:09:38.406Z,96190
2015-04-06T02:09:57.096Z,96188
2015-04-06T02:10:15.550Z,96193
2015-04-06T02:10:34.018Z,96188
2015-04-06T02:10:52.489Z,96193
2015-04-06T02:11:11.005Z,96188
2015-04-06T02:11:29.536Z,96191
2015-04-06T02:11:48.038Z,96191
2015-04-06T02:12:06.788Z,96188
2015-04-06T02:12:25.569Z,96193
2015-04-06T02:12:44.432Z,96182
2015-04-06T02:13:03.041Z,96188
2015-04-06T02:13:21.572Z,96185
2015-04-06T02:13:39.947Z,96185
2015-04-06T02:13:58.590Z,96193
2015-04-06T02:14:17.355Z,96193
2015-04-06T02:14:36.184Z,96188
2015-04-06T02:14:54.592Z,96188
2015-04-06T02:15:13.045Z,96193
2015-04-06T02:15:31.654Z,96188
2015-04-06T02:15:50.095Z,96193
2015-04-06T02:16:08.735Z,96193
2015-04-06T02:16:27.173Z,96193
2015-04-06T02:16:45.782Z,96188
2015-04-06T02:17:04.487Z,96202
2015-04-06T02:17:23.097Z,96193
2015-04-06T02:17:41.878Z,96196
2015-04-06T02:18:00.553Z,96193
2015-04-06T02:18:19.084Z,96199
2015-04-06T02:18:37.694Z,96188
2015-04-06T02:18:56.351Z,96190
2015-04-06T02:19:14.945Z,96199
2015-04-06T02:19:33.507Z,96196
2015-04-06T02:19:52.229Z,96196
2015-04-06T02:20:10.698Z,96196
2015-04-06T02:20:29.151Z,96193
2015-04-06T02:20:47.729Z,96199
2015-04-06T02:21:06.340Z,96193
2015-04-06T02:21:24.762Z,96196
2015-04-06T02:21:43.371Z,96190
2015-04-06T02:22:01.968Z,96196
2015-04-06T02:22:20.531Z,96199
2015-04-06T02:22:39.062Z,96196
2015-04-06T02:22:57.484Z,96207
2015-04-06T02:23:16.018Z,96193
2015-04-06T02:23:34.549Z,96204
2015-04-06T02:23:53.002Z,96196
2015-04-06T02:24:11.442Z,96202
2015-04-06T02:24:30.004Z,96202
2015-04-06T02:24:48.426Z,96196
2015-04-06T02:25:06.926Z,96196
2015-04-06T02:25:25.366Z,96196
2015-04-06T02:25:43.866Z,96202
2015-04-06T02:26:02.303Z,96196
2015-04-06T02:26:20.775Z,96193
2015-04-06T02:26:39.166Z,96199
2015-04-06T02:26:57.588Z,96204
2015-04-06T02:27:15.965Z,96199
2015-04-06T02:27:34.590Z,96202
2015-04-06T02:27:53.402Z,96199
2015-04-06T02:28:11.826Z,96188
2015-04-06T02:28:30.248Z,96199
2015-04-06T02:28:49.232Z,96188
2015-04-06T02:29:07.732Z,96199
2015-04-06T02:29:26.126Z,96208
2015-04-06T02:29:44.579Z,96191
2015-04-06T02:30:02.985Z,96197
2015-04-06T02:30:21.581Z,96191
2015-04-06T02:30:40.237Z,96202
2015-04-06T02:30:58.722Z,96199
2015-04-06T02:31:17.521Z,96194
2015-04-06T02:31:36.303Z,96194
2015-04-06T02:31:54.740Z,96202
2015-04-06T02:32:13.412Z,96194
2015-04-06T02:32:32.320Z,96197
2015-04-06T02:32:50.742Z,96197
2015-04-06T02:33:09.117Z,96197
2015-04-06T02:33:27.557Z,96203
2015-04-06T02:33:46.041Z,96203
2015-04-06T02:34:04.682Z,96200
2015-04-06T02:34:23.150Z,96195
2015-04-06T02:34:41.777Z,96195
2015-04-06T02:35:00.371Z,96200
2015-04-06T02:35:19.074Z,96195
2015-04-06T02:35:37.530Z,96198
2015-04-06T02:35:56.187Z,96198
2015-04-06T02:36:15.187Z,96195
2015-04-06T02:36:33.673Z,96198
2015-04-06T02:36:52.064Z,96201
2015-04-06T02:37:10.532Z,96201
2015-04-06T02:37:29.017Z,96201
2015-04-06T02:37:47.473Z,96204
2015-04-06T02:38:06.192Z,96201
2015-04-06T02:38:24.848Z,96193
2015-04-06T02:38:43.226Z,96195
2015-04-06T02:39:01.882Z,96193
2015-04-06T02:39:20.398Z,96195
2015-04-06T02:39:39.038Z,96198
2015-04-06T02:39:57.900Z,96190
2015-04-06T02:40:16.540Z,96190
2015-04-06T02:40:35.165Z,96195
2015-04-06T02:40:54.074Z,96204
2015-04-06T02:41:12.636Z,96195
2015-04-06T02:41:31.199Z,96184
2015-04-06T02:41:50.310Z,96190
2015-04-06T02:42:08.935Z,96184
2015-04-06T02:42:27.435Z,96190
2015-04-06T02:42:46.109Z,96193
2015-04-06T02:43:04.625Z,96190
2015-04-06T02:43:23.484Z,96195
2015-04-06T02:43:42.156Z,96198
2015-04-06T02:44:00.690Z,96195
2015-04-06T02:44:19.299Z,96190
2015-04-06T02:44:37.721Z,96190
2015-04-06T02:44:56.239Z,96184
2015-04-06T02:45:14.723Z,96187
2015-04-06T02:45:33.520Z,96195
2015-04-06T02:45:52.116Z,96190
2015-04-06T02:46:10.710Z,96195
2015-04-06T02:46:29.163Z,96190
2015-04-06T02:46:47.806Z,96184
2015-04-06T02:47:06.556Z,96198
2015-04-06T02:47:25.166Z,96190
2015-04-06T02:47:43.603Z,96198
2015-04-06T02:48:02.137Z,96187
2015-04-06T02:48:20.715Z,96201
2015-04-06T02:48:39.137Z,96198
2015-04-06T02:48:57.905Z,96201
2015-04-06T02:49:16.390Z,96190
2015-04-06T02:49:35.124Z,96201
2015-04-06T02:49:53.563Z,96201
2015-04-06T02:50:11.657Z,96198
2015-04-06T02:50:30.267Z,96201
2015-04-06T02:50:48.923Z,96198
2015-04-06T02:51:07.520Z,96195
2015-04-06T02:51:26.238Z,96195
2015-04-06T02:51:45.004Z,96204
2015-04-06T02:52:03.429Z,96195
2015-04-06T02:52:21.991Z,96195
2015-04-06T02:52:40.538Z,96198
2015-04-06T02:52:59.038Z,96201
2015-04-06T02:53:17.759Z,96195
2015-04-06T02:53:36.181Z,96195
2015-04-06T02:53:54.696Z,96198
2015-04-06T02:54:13.182Z,96195
2015-04-06T02:54:31.572Z,96209
2015-04-06T02:54:50.088Z,96200
2015-04-06T02:55:08.700Z,96198
2015-04-06T02:55:27.138Z,96192
2015-04-06T02:55:46.200Z,96198
2015-04-06T02:56:04.591Z,96200
2015-04-06T02:56:23.140Z,96198
2015-04-06T02:56:41.827Z,96198
2015-04-06T02:57:00.406Z,96203
2015-04-06T02:57:18.987Z,96198
2015-04-06T02:57:37.596Z,96203
2015-04-06T02:57:56.549Z,96203
2015-04-06T02:58:15.270Z,96203
2015-04-06T02:58:33.817Z,96198
2015-04-06T02:58:52.442Z,96192
2015-04-06T02:59:10.864Z,96195
2015-04-06T02:59:29.492Z,96198
2015-04-06T02:59:48.101Z,96192
2015-04-06T03:00:06.507Z,96192
2015-04-06T03:00:24.931Z,96206
2015-04-06T03:00:43.353Z,96195
2015-04-06T03:01:01.978Z,96189
2015-04-06T03:01:20.512Z,96195
2015-04-06T03:01:39.106Z,96198
2015-04-06T03:01:57.778Z,96203
2015-04-06T03:02:16.546Z,96187
2015-04-06T03:02:35.014Z,96189
2015-04-06T03:02:53.717Z,96198
2015-04-06T03:03:12.217Z,96189
2015-04-06T03:03:30.751Z,96192
2015-04-06T03:03:49.376Z,96206
2015-04-06T03:04:07.844Z,96192
2015-04-06T03:04:26.268Z,96195
2015-04-06T03:04:44.706Z,96189
2015-04-06T03:05:03.425Z,96198
2015-04-06T03:05:22.037Z,96198
2015-04-06T03:05:40.553Z,96200
2015-04-06T03:05:59.068Z,96198
2015-04-06T03:06:17.740Z,96198
2015-04-06T03:06:36.289Z,96187
2015-04-06T03:06:54.851Z,96192
2015-04-06T03:07:13.242Z,96192
2015-04-06T03:07:31.667Z,96203
2015-04-06T03:07:50.323Z,96198
2015-04-06T03:08:09.136Z,96198
2015-04-06T03:08:27.761Z,96192
2015-04-06T03:08:46.560Z,96192
2015-04-06T03:09:04.997Z,96192
2015-04-06T03:09:23.575Z,96192
2015-04-06T03:09:42.188Z,96200
2015-04-06T03:10:00.703Z,96192
2015-04-06T03:10:19.297Z,96192
2015-04-06T03:10:38.096Z,96195
2015-04-06T03:10:56.580Z,96198
2015-04-06T03:11:15.283Z,96192
2015-04-06T03:11:33.926Z,96206
2015-04-06T03:11:52.363Z,96192
2015-04-06T03:12:10.879Z,96203
2015-04-06T03:12:29.488Z,96206
2015-04-06T03:12:47.959Z,96192
2015-04-06T03:13:06.444Z,96195
2015-04-06T03:13:25.084Z,96195
2015-04-06T03:13:43.478Z,96200
2015-04-06T03:14:01.884Z,96197
2015-04-06T03:14:20.337Z,96197
2015-04-06T03:14:38.792Z,96192
2015-04-06T03:14:57.417Z,96197
2015-04-06T03:15:15.902Z,96183
2015-04-06T03:15:34.652Z,96192
2015-04-06T03:15:53.185Z,96197
2015-04-06T03:16:11.716Z,96203
2015-04-06T03:16:30.435Z,96194
2015-04-06T03:16:48.938Z,96197
2015-04-06T03:17:07.375Z,96186
2015-04-06T03:17:26.157Z,96194
2015-04-06T03:17:44.752Z,96189
2015-04-06T03:18:03.315Z,96194
2015-04-06T03:18:21.706Z,96186
2015-04-06T03:18:40.221Z,96200
2015-04-06T03:18:58.786Z,96197
2015-04-06T03:19:17.426Z,96194
2015-04-06T03:19:36.020Z,96192
2015-04-06T03:19:54.570Z,96186
2015-04-06T03:20:13.195Z,96189
2015-04-06T03:20:31.632Z,96189
2015-04-06T03:20:49.650Z,96192
2015-04-06T03:21:08.244Z,96189
2015-04-06T03:21:26.666Z,96192
2015-04-06T03:21:45.025Z,96189
2015-04-06T03:22:03.980Z,96184
2015-04-06T03:22:22.511Z,96192
2015-04-06T03:22:40.980Z,96192
2015-04-06T03:22:59.546Z,96189
2015-04-06T03:23:18.296Z,96195
2015-04-06T03:23:36.764Z,96195
2015-04-06T03:23:55.549Z,96189
2015-04-06T03:24:14.033Z,96187
2015-04-06T03:24:32.596Z,96189
2015-04-06T03:24:51.142Z,96195
2015-04-06T03:25:09.754Z,96195
2015-04-06T03:25:28.160Z,96192
2015-04-06T03:25:46.754Z,96195
2015-04-06T03:26:05.568Z,96192
2015-04-06T03:26:23.959Z,96189
2015-04-06T03:26:42.568Z,96192
2015-04-06T03:27:00.990Z,96200
2015-04-06T03:27:19.524Z,96195
2015-04-06T03:27:38.056Z,96192
2015-04-06T03:27:56.556Z,96195
2015-04-06T03:28:15.090Z,96186
2015-04-06T03:28:33.715Z,96189
2015-04-06T03:28:52.387Z,96195
2015-04-06T03:29:10.889Z,96195
2015-04-06T03:29:29.295Z,96186
2015-04-06T03:29:47.998Z,96200
2015-04-06T03:30:06.391Z,96192
2015-04-06T03:30:24.781Z,96189
2015-04-06T03:30:43.469Z,96197
2015-04-06T03:31:01.938Z,96186
2015-04-06T03:31:20.377Z,96197
2015-04-06T03:31:38.862Z,96194
2015-04-06T03:31:57.455Z,96192
2015-04-06T03:32:16.160Z,96186
2015-04-06T03:32:34.832Z,96197
2015-04-06T03:32:53.442Z,96191
2015-04-06T03:33:11.960Z,96180
2015-04-06T03:33:30.367Z,96189
2015-04-06T03:33:49.007Z,96189
2015-04-06T03:34:07.445Z,96202
2015-04-06T03:34:25.931Z,96191
2015-04-06T03:34:44.353Z,96194
2015-04-06T03:35:03.197Z,96186
2015-04-06T03:35:21.683Z,96194
2015-04-06T03:35:40.464Z,96191
2015-04-06T03:35:58.964Z,96199
2015-04-06T03:36:17.389Z,96194
2015-04-06T03:36:36.092Z,96197
2015-04-06T03:36:54.811Z,96197
2015-04-06T03:37:13.377Z,96197
2015-04-06T03:37:31.814Z,96185
2015-04-06T03:37:50.283Z,96199
2015-04-06T03:38:08.736Z,96196
2015-04-06T03:38:27.144Z,96188
2015-04-06T03:38:45.566Z,96193
2015-04-06T03:39:03.972Z,96202
2015-04-06T03:39:22.568Z,96193
2015-04-06T03:39:41.084Z,96191
2015-04-06T03:39:59.506Z,96191
2015-04-06T03:40:17.943Z,96193
2015-04-06T03:40:36.509Z,96188
2015-04-06T03:40:55.118Z,96196
2015-04-06T03:41:13.712Z,96196
2015-04-06T03:41:32.354Z,96199
2015-04-06T03:41:50.761Z,96202
2015-04-06T03:42:09.229Z,96204
2015-04-06T03:42:27.636Z,96202
2015-04-06T03:42:46.169Z,96196
2015-04-06T03:43:04.700Z,96193
2015-04-06T03:43:23.200Z,96199
2015-04-06T03:43:41.672Z,96196
2015-04-06T03:44:00.328Z,96196
2015-04-06T03:44:19.000Z,96201
2015-04-06T03:44:37.424Z,96201
2015-04-06T03:44:55.971Z,96207
2015-04-06T03:45:14.643Z,96199
2015-04-06T03:45:33.252Z,96204
2015-04-06T03:45:51.849Z,96204
2015-04-06T03:46:10.364Z,96204
2015-04-06T03:46:28.989Z,96196
2015-04-06T03:46:47.523Z,96204
2015-04-06T03:47:06.085Z,96204
2015-04-06T03:47:24.569Z,96210
2015-04-06T03:47:43.275Z,96213
2015-04-06T03:48:01.821Z,96193
2015-04-06T03:48:20.493Z,96210
2015-04-06T03:48:39.012Z,96199
2015-04-06T03:48:57.449Z,96204
2015-04-06T03:49:16.090Z,96199
2015-04-06T03:49:34.574Z,96204
2015-04-06T03:49:52.967Z,96204
2015-04-06T03:50:11.514Z,96207
2015-04-06T03:50:30.248Z,96204
2015-04-06T03:50:48.845Z,96204
2015-04-06T03:51:07.283Z,96207
2015-04-06T03:51:25.829Z,96207
2015-04-06T03:51:44.283Z,96207
2015-04-06T03:52:02.675Z,96210
2015-04-06T03:52:21.331Z,96201
2015-04-06T03:52:39.800Z,96201
2015-04-06T03:52:58.209Z,96212
2015-04-06T03:53:16.913Z,96204
2015-04-06T03:53:35.506Z,96204
2015-04-06T03:53:53.977Z,96212
2015-04-06T03:54:12.368Z,96204
2015-04-06T03:54:30.758Z,96215
2015-04-06T03:54:49.774Z,96209
2015-04-06T03:55:08.323Z,96204
2015-04-06T03:55:26.792Z,96209
2015-04-06T03:55:45.385Z,96218
2015-04-06T03:56:03.778Z,96207
2015-04-06T03:56:22.481Z,96209
2015-04-06T03:56:40.856Z,96218
2015-04-06T03:56:59.483Z,96207
2015-04-06T03:57:18.108Z,96207
2015-04-06T03:57:36.499Z,96212
2015-04-06T03:57:54.921Z,96212
2015-04-06T03:58:13.564Z,96215
2015-04-06T03:58:32.064Z,96209
2015-04-06T03:58:50.517Z,96206
2015-04-06T03:59:09.286Z,96206